Time;durP1;ratioP1;P1;durP2;ratioP2;P2;SDS_P1;SDS_P2;PMS_P1;PMS_P2;Temp;Humidity;BMP_temperature;BMP_pressure;BME280_temperature;BME280_humidity;BME280_pressure;Samples;Min_cycle;Max_cycle;Signal;HPM_P1;HPM_P2
2023/05/12 00:00:51;;;;;;;11.10;4.20;;;9.50;90.00;8.60;101162;;;;566988;252;24153;-77
2023/05/12 00:03:20;;;;;;;12.77;5.00;;;9.40;89.70;8.50;101162;;;;578030;247;24088;-75
2023/05/12 00:05:48;;;;;;;13.40;3.93;;;9.40;93.40;8.50;101154;;;;567282;252;24130;-77
2023/05/12 00:08:17;;;;;;;11.17;5.07;;;9.40;90.10;8.50;101159;;;;573513;247;35478;-74
2023/05/12 00:10:44;;;;;;;8.83;4.47;;;9.50;93.20;8.50;101163;;;;567295;251;24181;-79
2023/05/12 00:13:13;;;;;;;13.47;4.80;;;9.40;90.60;8.50;101158;;;;578456;247;24213;-76
2023/05/12 00:15:44;;;;;;;17.53;4.30;;;9.10;90.20;8.50;101161;;;;566825;252;24184;-80
2023/05/12 00:18:10;;;;;;;26.53;8.07;;;9.40;90.30;8.50;101164;;;;577888;248;24123;-80
2023/05/12 00:20:38;;;;;;;12.80;4.60;;;9.40;93.40;8.40;101166;;;;566871;252;25226;-79
2023/05/12 00:23:06;;;;;;;16.77;4.43;;;9.30;90.60;8.40;101160;;;;578127;247;24091;-78
2023/05/12 00:25:34;;;;;;;13.17;4.17;;;9.30;92.40;8.30;101169;;;;566898;252;24114;-78
2023/05/12 00:28:02;;;;;;;11.73;4.13;;;8.90;93.40;8.20;101163;;;;578346;246;24116;-80
2023/05/12 00:30:30;;;;;;;13.93;4.90;;;8.90;93.50;8.20;101165;;;;568269;251;25309;-76
2023/05/12 00:32:58;;;;;;;10.43;3.70;;;9.00;90.50;8.10;101164;;;;578980;247;24102;-76
2023/05/12 00:35:30;;;;;;;12.13;4.40;;;9.00;90.90;8.10;101165;;;;568054;252;24134;-78
2023/05/12 00:37:55;;;;;;;9.77;4.00;;;9.00;92.50;8.00;101166;;;;568752;248;24160;-79
2023/05/12 00:40:23;;;;;;;11.17;5.07;;;9.00;91.60;7.90;101169;;;;562833;251;35463;-78
2023/05/12 00:42:52;;;;;;;9.80;4.40;;;8.80;91.60;7.90;101164;;;;578960;247;27423;-79
2023/05/12 00:45:20;;;;;;;10.53;4.47;;;8.90;95.00;7.80;101166;;;;567812;252;24110;-79
2023/05/12 00:47:48;;;;;;;10.13;4.40;;;8.70;95.20;7.80;101172;;;;578327;248;24147;-76
2023/05/12 00:50:16;;;;;;;12.80;5.00;;;8.70;95.50;7.70;101181;;;;558751;252;24205;-80
2023/05/12 00:52:43;;;;;;;13.87;5.13;;;8.50;95.60;7.70;101175;;;;578376;247;24145;-79
2023/05/12 00:55:16;;;;;;;10.33;4.30;;;8.70;93.80;7.70;101179;;;;567203;252;24133;-73
2023/05/12 00:57:44;;;;;;;12.30;5.00;;;8.60;92.60;7.70;101175;;;;573269;248;35429;-73
2023/05/12 01:00:10;;;;;;;17.67;5.40;;;8.60;92.80;7.60;101186;;;;558739;252;24222;-79
2023/05/12 01:02:41;;;;;;;11.93;4.37;;;8.70;96.00;7.60;101188;;;;578260;246;24150;-78
2023/05/12 01:05:11;;;;;;;15.30;5.70;;;8.40;93.30;7.50;101191;;;;558955;252;24149;-81
2023/05/12 01:07:35;;;;;;;14.70;5.27;;;8.40;93.60;7.40;101186;;;;577803;248;24216;-76
2023/05/12 01:10:04;;;;;;;9.90;3.90;;;8.30;93.80;7.40;101181;;;;567258;252;24136;-75
2023/05/12 01:12:32;;;;;;;15.27;4.43;;;8.20;95.60;7.30;101183;;;;578497;247;24184;-77
2023/05/12 01:15:04;;;;;;;13.87;4.73;;;8.20;94.00;7.30;101187;;;;567326;252;24154;-78
2023/05/12 01:17:29;;;;;;;11.63;4.57;;;8.20;94.90;7.20;101190;;;;569276;248;24113;-74
2023/05/12 01:19:57;;;;;;;15.87;5.30;;;8.10;97.50;7.30;101189;;;;558587;252;24131;-73
2023/05/12 01:22:25;;;;;;;11.47;4.43;;;8.20;94.40;7.20;101192;;;;569889;248;24076;-74
2023/05/12 01:24:59;;;;;;;11.93;4.47;;;7.90;97.60;7.20;101193;;;;558989;252;24173;-75
2023/05/12 01:27:27;;;;;;;13.73;5.03;;;8.10;97.70;7.20;101197;;;;567934;248;24102;-77
2023/05/12 01:29:56;;;;;;;16.43;5.33;;;8.20;94.50;7.20;101195;;;;559158;252;24238;-76
2023/05/12 01:32:29;;;;;;;9.43;4.10;;;8.10;94.50;7.20;101189;;;;569859;248;24134;-75
2023/05/12 01:34:53;;;;;;;12.63;4.73;;;8.00;96.20;7.10;101184;;;;566970;252;24161;-79
2023/05/12 01:37:25;;;;;;;10.20;4.07;;;8.10;94.90;7.10;101197;;;;578568;247;24122;-77
2023/05/12 01:39:50;;;;;;;13.83;4.67;;;8.00;95.10;7.10;101196;;;;567418;250;24119;-77
2023/05/12 01:42:19;;;;;;;18.33;5.27;;;8.00;95.20;7.00;101198;;;;579832;247;24113;-75
2023/05/12 01:44:47;;;;;;;10.03;4.23;;;8.10;98.70;7.00;101201;;;;568836;251;24152;-77
2023/05/12 01:47:15;;;;;;;14.97;5.17;;;7.90;95.40;6.90;101202;;;;580037;247;24130;-75
2023/05/12 01:49:44;;;;;;;12.37;4.73;;;7.90;95.70;7.00;101211;;;;568869;252;24131;-73
2023/05/12 01:52:12;;;;;;;15.73;5.60;;;7.70;96.40;7.00;101207;;;;579382;248;24112;-75
2023/05/12 01:54:40;;;;;;;18.10;5.43;;;7.80;99.40;7.00;101202;;;;567435;252;24132;-74
2023/05/12 01:57:08;;;;;;;12.70;4.40;;;7.90;99.60;7.00;101207;;;;578758;247;24169;-72
2023/05/12 01:59:37;;;;;;;16.70;5.40;;;7.90;96.20;6.90;101213;;;;567907;252;24128;-74
2023/05/12 02:02:05;;;;;;;14.57;5.27;;;7.80;99.70;6.90;101207;;;;579573;247;24126;-74
2023/05/12 02:04:35;;;;;;;14.43;5.90;;;7.70;98.50;6.90;101213;;;;568230;252;24105;-76
2023/05/12 02:07:01;;;;;;;14.50;5.23;;;7.70;97.50;7.00;101220;;;;570131;248;24114;-79
2023/05/12 02:09:29;;;;;;;10.83;4.53;;;7.70;97.80;7.00;101205;;;;567226;252;24244;-78
2023/05/12 02:11:57;;;;;;;12.47;4.87;;;7.00;96.20;7.00;101213;;;;578168;247;24125;-75
2023/05/12 02:14:26;;;;;;;12.70;5.00;;;8.00;96.60;7.00;101209;;;;567242;252;24182;-76
2023/05/12 02:16:55;;;;;;;18.20;5.87;;;8.00;96.70;7.00;101211;;;;569438;248;24103;-78
2023/05/12 02:19:22;;;;;;;12.73;4.07;;;8.00;99.90;7.10;101206;;;;567130;252;24150;-77
2023/05/12 02:21:51;;;;;;;11.00;4.70;;;7.90;96.60;7.10;101224;;;;578469;247;24082;-76
2023/05/12 02:24:20;;;;;;;13.37;5.57;;;8.00;96.60;7.10;101211;;;;567266;252;24157;-74
2023/05/12 02:26:47;;;;;;;10.70;3.60;;;9.10;99.90;7.10;101220;;;;578459;247;24190;-73
2023/05/12 02:29:15;;;;;;;11.20;4.63;;;8.10;99.90;7.10;101214;;;;567274;252;24269;-73
2023/05/12 02:31:43;;;;;;;13.73;4.60;;;8.00;96.90;7.00;101215;;;;578457;247;24116;-80
2023/05/12 02:34:11;;;;;;;13.40;5.20;;;8.00;99.90;7.00;101215;;;;567187;247;24207;-78
2023/05/12 02:36:40;;;;;;;11.10;4.40;;;8.00;96.70;7.10;101221;;;;578208;247;24095;-75
2023/05/12 02:39:08;;;;;;;12.50;4.87;;;7.90;98.60;7.10;101222;;;;566919;252;24179;-72
2023/05/12 02:41:36;;;;;;;16.77;4.77;;;8.00;97.50;7.00;101219;;;;577945;247;24139;-73
2023/05/12 02:44:04;;;;;;;13.57;4.67;;;8.00;97.80;7.00;101228;;;;566762;252;24145;-76
2023/05/12 02:46:33;;;;;;;10.83;4.53;;;8.00;99.90;7.00;101229;;;;577973;247;24092;-75
2023/05/12 02:49:01;;;;;;;16.07;5.10;;;7.90;97.20;7.00;101231;;;;566893;252;24171;-73
2023/05/12 02:51:29;;;;;;;11.80;4.33;;;7.90;97.50;7.00;101224;;;;578745;246;24466;-75
2023/05/12 02:53:58;;;;;;;10.70;4.03;;;7.90;97.30;7.00;101229;;;;562871;252;24120;-73
2023/05/12 02:56:26;;;;;;;15.77;4.97;;;8.00;97.30;7.00;101224;;;;579378;247;24141;-72
2023/05/12 02:58:54;;;;;;;19.00;5.60;;;7.90;97.30;7.00;101226;;;;557742;252;24144;-73
2023/05/12 03:01:23;;;;;;;7.63;3.60;;;7.90;97.40;7.00;101227;;;;579071;247;24158;-74
2023/05/12 03:03:51;;;;;;;10.50;4.17;;;7.90;97.60;7.00;101228;;;;567731;252;24108;-74
2023/05/12 03:06:19;;;;;;;16.20;5.47;;;7.90;99.90;7.00;101224;;;;578980;247;24095;-74
2023/05/12 03:08:48;;;;;;;12.10;4.70;;;7.90;97.80;7.00;101227;;;;567341;251;24229;-73
2023/05/12 03:11:16;;;;;;;11.97;4.50;;;7.70;99.90;7.00;101227;;;;578180;247;24161;-75
2023/05/12 03:13:44;;;;;;;13.20;4.83;;;7.90;98.40;7.00;101223;;;;567199;252;24204;-76
2023/05/12 03:16:16;;;;;;;14.93;5.10;;;7.90;98.30;7.00;101223;;;;578172;247;24137;-76
2023/05/12 03:18:41;;;;;;;15.53;4.93;;;7.70;99.90;7.00;101220;;;;567030;252;24269;-74
2023/05/12 03:21:09;;;;;;;12.83;5.13;;;7.90;98.60;7.00;101222;;;;578739;247;24100;-74
2023/05/12 03:23:37;;;;;;;21.23;5.03;;;7.70;99.90;7.00;101220;;;;567515;251;24141;-78
2023/05/12 03:26:05;;;;;;;18.43;5.33;;;8.00;99.90;7.10;101232;;;;578723;247;24093;-78
2023/05/12 03:28:33;;;;;;;15.57;5.90;;;8.00;99.30;7.10;101234;;;;567283;252;24211;-80
2023/05/12 03:31:02;;;;;;;15.60;5.17;;;8.00;99.00;7.10;101226;;;;578366;248;24120;-74
2023/05/12 03:33:30;;;;;;;10.50;4.63;;;8.00;99.80;7.10;101223;;;;567268;252;24124;-72
2023/05/12 03:35:59;;;;;;;18.48;6.90;;;8.10;99.70;7.20;101232;;;;573334;247;35430;-78
2023/05/12 03:38:27;;;;;;;11.40;4.80;;;7.90;99.90;7.20;101232;;;;567307;252;24225;-75
2023/05/12 03:41:10;;;;;;;11.73;4.23;;;7.80;99.90;7.30;101232;;;;578457;247;24235;-73
2023/05/12 03:43:36;;;;;;;10.90;4.73;;;8.20;99.70;7.40;101229;;;;558388;252;24230;-74
2023/05/12 03:46:05;;;;;;;10.47;4.13;;;8.50;99.90;7.70;101236;;;;578170;247;24148;-73
2023/05/12 03:48:33;;;;;;;12.37;5.37;;;9.50;99.90;8.70;101242;;;;561951;252;46419;-76
2023/05/12 03:51:06;;;;;;;12.63;5.40;;;10.60;99.20;10.00;101238;;;;577957;247;24137;-78
2023/05/12 03:53:31;;;;;;;15.40;5.60;;;11.90;96.90;11.20;101245;;;;569417;248;24116;-78
2023/05/12 03:55:59;;;;;;;13.47;5.03;;;13.00;95.10;12.30;101248;;;;569479;248;24121;-76
2023/05/12 03:58:27;;;;;;;15.57;5.23;;;14.30;91.50;13.40;101253;;;;569068;248;24116;-76
2023/05/12 04:01:00;;;;;;;16.73;6.23;;;15.30;84.90;14.60;101253;;;;569374;248;24111;-77
2023/05/12 04:03:30;;;;;;;11.27;5.27;;;16.00;79.60;15.60;101250;;;;569945;247;24237;-77
2023/05/12 04:06:00;;;;;;;8.83;4.73;;;17.00;75.80;16.30;101259;;;;570589;247;24089;-79
2023/05/12 04:08:29;;;;;;;11.50;5.17;;;17.90;72.60;17.20;101269;;;;578394;247;24213;-74
2023/05/12 04:10:57;;;;;;;12.70;5.07;;;19.00;65.90;18.00;101264;;;;570211;247;24100;-76
2023/05/12 04:13:25;;;;;;;11.80;5.43;;;19.70;62.80;18.70;101268;;;;578557;248;24133;-73
2023/05/12 04:15:56;;;;;;;15.83;6.40;;;19.40;61.20;19.30;101279;;;;570211;248;24113;-75
2023/05/12 04:18:24;;;;;;;14.33;5.43;;;21.00;59.40;20.10;101276;;;;573408;248;24119;-75
2023/05/12 04:20:54;;;;;;;14.57;6.90;;;21.90;57.10;20.60;101279;;;;573526;248;24163;-78
2023/05/12 04:23:23;;;;;;;19.67;5.60;;;22.40;56.60;21.20;101286;;;;569602;248;24154;-74
2023/05/12 04:25:51;;;;;;;12.90;4.70;;;23.00;53.80;22.00;101282;;;;569739;248;24119;-74
2023/05/12 04:28:20;;;;;;;16.90;6.20;;;23.70;52.50;22.50;101291;;;;569883;248;23100;-76
2023/05/12 04:30:47;;;;;;;13.23;5.70;;;24.40;50.10;23.20;101296;;;;569765;248;23124;-78
2023/05/12 04:33:15;;;;;;;12.57;6.27;;;25.00;48.70;23.70;101296;;;;569793;248;23123;-78
2023/05/12 04:35:43;;;;;;;14.97;5.40;;;24.90;49.00;24.60;101305;;;;569775;248;24077;-75
2023/05/12 04:38:12;;;;;;;18.00;6.50;;;25.80;45.90;24.80;101304;;;;569731;248;24109;-75
2023/05/12 04:40:39;;;;;;;16.73;6.07;;;26.50;45.10;25.30;101295;;;;569715;248;23158;-74
2023/05/12 04:43:07;;;;;;;13.27;5.83;;;27.10;44.80;25.50;101305;;;;569675;248;23159;-73
2023/05/12 04:45:35;;;;;;;13.77;6.73;;;27.30;43.70;26.00;101309;;;;569697;248;24095;-74
2023/05/12 04:48:03;;;;;;;12.77;5.93;;;27.70;42.50;26.60;101310;;;;569595;248;23138;-76
2023/05/12 04:50:31;;;;;;;8.67;5.50;;;28.00;41.80;26.70;101311;;;;570216;248;24118;-73
2023/05/12 04:52:59;;;;;;;7.40;4.97;;;28.50;41.20;27.20;101314;;;;570319;248;24204;-73
2023/05/12 04:55:27;;;;;;;12.70;5.73;;;28.80;40.80;27.60;101318;;;;569490;248;23102;-76
2023/05/12 04:57:55;;;;;;;13.10;5.87;;;29.20;40.30;27.90;101326;;;;569435;248;23117;-79
2023/05/12 05:00:23;;;;;;;8.63;5.28;;;28.60;39.20;27.90;101325;;;;569332;248;24122;-78
2023/05/12 05:02:51;;;;;;;16.45;6.00;;;29.30;39.40;28.10;101327;;;;569479;248;23107;-77
2023/05/12 05:05:19;;;;;;;12.83;5.23;;;29.60;38.80;28.40;101338;;;;569662;248;23138;-76
2023/05/12 05:07:47;;;;;;;9.52;4.95;;;29.80;38.90;28.50;101333;;;;569754;248;24092;-73
2023/05/12 05:10:15;;;;;;;12.18;5.62;;;29.70;39.20;28.90;101339;;;;570436;248;23112;-74
2023/05/12 05:12:43;;;;;;;12.10;5.20;;;30.50;37.90;29.40;101339;;;;569933;248;23144;-74
2023/05/12 05:15:11;;;;;;;10.85;4.85;;;30.90;37.50;29.60;101343;;;;570541;247;23106;-74
2023/05/12 05:17:39;;;;;;;11.05;5.15;;;30.90;38.00;29.90;101337;;;;571021;247;23128;-76
2023/05/12 05:20:10;;;;;;;7.75;4.80;;;31.10;38.10;30.30;101343;;;;570696;247;23124;-74
2023/05/12 05:22:35;;;;;;;18.47;5.53;;;31.40;37.10;30.70;101342;;;;565245;247;35509;-73
2023/05/12 05:25:03;;;;;;;10.73;5.45;;;31.70;37.40;31.10;101350;;;;569831;248;23128;-73
2023/05/12 05:27:31;;;;;;;17.37;5.82;;;32.30;35.70;31.40;101349;;;;569910;248;24127;-75
2023/05/12 05:29:59;;;;;;;11.43;5.65;;;32.50;35.30;31.70;101356;;;;564800;248;35467;-73
2023/05/12 05:32:26;;;;;;;9.60;5.10;;;32.80;35.40;31.70;101358;;;;569884;248;23092;-74
2023/05/12 05:34:54;;;;;;;13.00;5.75;;;33.10;34.60;32.20;101365;;;;569550;248;24087;-74
2023/05/12 05:37:22;;;;;;;11.88;5.95;;;33.10;34.90;32.00;101360;;;;569726;248;23117;-75
2023/05/12 05:39:50;;;;;;;21.25;5.75;;;33.10;34.50;32.50;101370;;;;569587;248;24130;-74
2023/05/12 05:42:18;;;;;;;13.20;5.97;;;33.60;34.30;32.80;101373;;;;569559;248;23082;-76
2023/05/12 05:44:46;;;;;;;8.45;5.03;;;33.60;34.70;32.80;101368;;;;570006;248;23175;-75
2023/05/12 05:47:14;;;;;;;9.23;5.47;;;33.70;34.30;32.70;101373;;;;569996;248;24190;-74
2023/05/12 05:49:42;;;;;;;18.10;5.90;;;33.70;33.80;32.70;101376;;;;569962;248;23125;-76
2023/05/12 05:52:11;;;;;;;11.30;5.30;;;33.60;34.10;32.70;101377;;;;569663;248;23133;-74
2023/05/12 05:54:39;;;;;;;7.40;5.03;;;33.30;34.40;32.30;101381;;;;569652;248;23101;-75
2023/05/12 05:57:07;;;;;;;9.32;4.87;;;33.50;33.90;32.70;101379;;;;569403;248;24111;-74
2023/05/12 05:59:35;;;;;;;10.82;5.32;;;33.50;34.40;33.00;101382;;;;569691;248;23144;-73
2023/05/12 06:02:03;;;;;;;11.60;5.25;;;33.70;33.80;32.80;101382;;;;569642;248;23142;-79
2023/05/12 06:04:31;;;;;;;14.57;6.25;;;33.70;33.60;32.90;101387;;;;569713;248;23140;-75
2023/05/12 06:07:00;;;;;;;9.30;4.80;;;34.10;34.30;33.30;101396;;;;569780;248;23100;-76
2023/05/12 06:09:42;;;;;;;8.50;4.53;;;34.10;34.20;33.90;101401;;;;569748;248;24176;-75
2023/05/12 06:12:07;;;;;;;10.57;4.87;;;34.60;33.20;33.90;101393;;;;567504;248;24132;-75
2023/05/12 06:14:35;;;;;;;10.80;4.93;;;34.70;32.70;33.90;101389;;;;569392;248;23131;-76
2023/05/12 06:17:03;;;;;;;8.85;4.62;;;34.70;33.10;34.60;101392;;;;569299;248;23113;-73
2023/05/12 06:19:35;;;;;;;5.43;4.50;;;35.20;33.00;34.80;101406;;;;569489;248;23125;-74
2023/05/12 06:21:59;;;;;;;8.23;4.93;;;35.50;33.00;35.00;101405;;;;577692;248;23135;-74
2023/05/12 06:24:33;;;;;;;20.37;5.40;;;35.70;32.70;35.00;101417;;;;569524;248;24186;-74
2023/05/12 06:27:01;;;;;;;10.35;4.80;;;35.80;32.60;35.40;101415;;;;570142;247;23132;-74
2023/05/12 06:29:28;;;;;;;17.33;5.95;;;36.10;32.50;36.30;101418;;;;570561;247;23104;-78
2023/05/12 06:31:57;;;;;;;10.60;5.07;;;37.00;32.10;36.20;101420;;;;570261;247;23159;-75
2023/05/12 06:34:26;;;;;;;18.15;7.20;;;37.50;32.00;36.90;101418;;;;573861;247;46407;-77
2023/05/12 06:36:58;;;;;;;10.57;5.28;;;37.80;31.80;37.00;101423;;;;569902;248;23126;-75
2023/05/12 06:39:26;;;;;;;19.90;7.05;;;37.80;31.80;37.50;101419;;;;569533;248;23152;-75
2023/05/12 06:41:50;;;;;;;9.23;5.03;;;38.00;30.30;37.20;101427;;;;573818;248;24169;-75
2023/05/12 06:44:18;;;;;;;11.32;5.10;;;38.00;30.70;36.80;101423;;;;569879;248;23101;-75
2023/05/12 06:46:46;;;;;;;9.88;5.20;;;37.60;30.90;37.00;101429;;;;570094;248;24204;-75
2023/05/12 06:49:14;;;;;;;11.52;5.05;;;37.70;31.00;37.50;101428;;;;569997;248;24174;-80
2023/05/12 06:51:45;;;;;;;7.37;4.25;;;38.10;31.00;38.40;101429;;;;569986;248;23145;-79
2023/05/12 06:54:10;;;;;;;9.18;4.45;;;38.80;30.90;39.00;101429;;;;569692;248;23156;-78
2023/05/12 06:56:38;;;;;;;11.95;5.40;;;39.50;30.30;38.90;101426;;;;569999;248;23151;-76
2023/05/12 06:59:06;;;;;;;9.05;4.90;;;39.50;30.00;38.20;101434;;;;569529;248;23152;-77
2023/05/12 07:01:35;;;;;;;19.75;7.57;;;38.80;30.20;37.80;101430;;;;578209;248;23108;-75
2023/05/12 07:04:06;;;;;;;12.75;5.40;;;38.80;30.20;37.60;101429;;;;569242;248;23134;-74
2023/05/12 07:06:31;;;;;;;16.05;7.00;;;38.50;30.00;37.70;101432;;;;569133;248;23106;-76
2023/05/12 07:08:58;;;;;;;8.70;5.15;;;38.50;30.60;37.60;101421;;;;569289;248;23118;-75
2023/05/12 07:11:26;;;;;;;11.90;5.32;;;38.40;30.90;38.20;101432;;;;569411;248;23166;-75
2023/05/12 07:13:54;;;;;;;12.77;6.32;;;38.80;30.90;39.00;101433;;;;569344;248;23100;-75
2023/05/12 07:16:22;;;;;;;8.50;4.75;;;39.30;30.50;39.00;101427;;;;569660;248;23153;-75
2023/05/12 07:18:50;;;;;;;15.35;6.00;;;39.50;30.10;38.80;101440;;;;564717;248;35353;-75
2023/05/12 07:21:18;;;;;;;11.90;5.07;;;39.60;30.50;38.30;101431;;;;569690;248;23094;-75
2023/05/12 07:23:46;;;;;;;9.70;4.72;;;39.30;30.60;38.40;101431;;;;569768;248;23089;-78
2023/05/12 07:26:14;;;;;;;14.68;5.75;;;39.30;30.30;38.40;101434;;;;569760;248;23083;-79
2023/05/12 07:28:42;;;;;;;8.88;5.00;;;39.10;30.20;38.50;101434;;;;569281;248;23123;-79
2023/05/12 07:31:10;;;;;;;11.77;4.47;;;39.10;30.50;39.20;101437;;;;569362;248;23150;-79
2023/05/12 07:33:38;;;;;;;13.35;5.82;;;39.60;30.50;39.30;101444;;;;569347;248;23136;-75
2023/05/12 07:36:07;;;;;;;17.35;5.87;;;39.90;30.30;39.10;101436;;;;569368;248;23101;-76
2023/05/12 07:38:34;;;;;;;30.65;7.62;;;39.80;31.10;39.00;101440;;;;569932;247;23101;-77
2023/05/12 07:41:02;;;;;;;23.52;7.03;;;39.80;30.40;39.20;101433;;;;570603;247;23095;-75
2023/05/12 07:43:29;;;;;;;14.30;5.10;;;39.90;30.30;39.20;101438;;;;570203;247;23196;-77
2023/05/12 07:45:59;;;;;;;14.13;5.68;;;40.00;30.70;39.90;101437;;;;570212;247;24167;-74
2023/05/12 07:48:25;;;;;;;7.43;4.68;;;40.40;30.50;39.90;101437;;;;570321;248;23108;-78
2023/05/12 07:50:53;;;;;;;13.25;5.95;;;40.60;30.00;39.40;101447;;;;570241;248;23115;-77
2023/05/12 07:53:21;;;;;;;16.70;5.65;;;40.30;30.00;38.40;101442;;;;570298;248;23098;-76
2023/05/12 07:55:49;;;;;;;10.15;4.75;;;39.50;30.50;38.30;101433;;;;570197;248;23153;-74
2023/05/12 07:58:17;;;;;;;16.40;6.03;;;39.30;30.20;38.70;101441;;;;578340;248;23117;-74
2023/05/12 08:00:45;;;;;;;16.10;5.82;;;39.40;30.70;38.50;101442;;;;569472;248;23177;-78
2023/05/12 08:03:15;;;;;;;9.27;4.50;;;39.00;30.40;38.10;101443;;;;569582;248;23145;-77
2023/05/12 08:05:41;;;;;;;10.95;4.40;;;38.80;30.10;37.70;101434;;;;569733;248;23138;-80
2023/05/12 08:08:15;;;;;;;11.10;4.90;;;38.80;30.60;37.70;101447;;;;570657;248;24149;-75
2023/05/12 08:10:37;;;;;;;11.10;5.20;;;38.60;30.80;37.90;101437;;;;570457;248;24133;-77
2023/05/12 08:13:05;;;;;;;11.12;3.87;;;38.70;30.50;38.40;101443;;;;579227;248;23234;-80
2023/05/12 08:15:37;;;;;;;25.17;5.95;;;39.70;30.50;39.20;101435;;;;569881;248;24170;-77
2023/05/12 08:18:02;;;;;;;11.38;4.57;;;40.20;29.80;39.30;101442;;;;564527;248;35364;-80
2023/05/12 08:20:31;;;;;;;11.73;5.72;;;40.00;29.70;39.00;101437;;;;569295;248;23138;-78
2023/05/12 08:22:59;;;;;;;17.50;7.43;;;40.00;29.80;38.50;101447;;;;569425;248;23206;-79
2023/05/12 08:25:29;;;;;;;13.85;5.00;;;39.60;29.80;38.20;101450;;;;569416;248;23161;-79
2023/05/12 08:27:58;;;;;;;10.88;5.10;;;39.20;30.00;38.30;101448;;;;578014;248;23113;-77
2023/05/12 08:30:23;;;;;;;8.65;4.62;;;39.10;30.40;38.20;101444;;;;564386;248;35416;-77
2023/05/12 08:32:51;;;;;;;6.87;3.80;;;39.20;29.20;38.10;101451;;;;569316;248;23168;-74
2023/05/12 08:35:19;;;;;;;8.25;3.50;;;39.10;29.20;38.40;101447;;;;569478;248;23132;-76
2023/05/12 08:37:47;;;;;;;9.13;4.40;;;39.50;29.10;38.50;101447;;;;569344;248;23107;-74
2023/05/12 08:40:16;;;;;;;7.90;3.78;;;39.60;29.40;38.60;101443;;;;569462;248;23133;-75
2023/05/12 08:42:45;;;;;;;5.95;3.28;;;39.60;28.70;38.40;101446;;;;566901;248;23114;-75
2023/05/12 08:45:13;;;;;;;16.65;5.07;;;39.60;28.70;37.60;101450;;;;566798;248;23167;-75
2023/05/12 08:47:44;;;;;;;9.48;4.35;;;39.10;28.80;37.30;101443;;;;569225;248;23163;-75
2023/05/12 08:50:12;;;;;;;11.60;4.40;;;38.70;29.50;38.40;101442;;;;570489;247;23140;-77
2023/05/12 08:52:40;;;;;;;6.60;3.60;;;39.10;29.90;39.60;101434;;;;573223;247;23147;-75
2023/05/12 08:55:07;;;;;;;15.35;4.20;;;40.20;29.20;40.60;101440;;;;570534;247;23159;-75
2023/05/12 08:57:32;;;;;;;15.07;4.50;;;41.30;28.80;41.50;101450;;;;570225;247;23113;-78
2023/05/12 09:00:00;;;;;;;11.35;4.20;;;42.40;27.80;40.70;101441;;;;567957;246;23096;-80
2023/05/12 09:02:28;;;;;;;15.75;4.55;;;42.20;27.50;40.20;101438;;;;569698;248;23097;-76
2023/05/12 09:04:57;;;;;;;8.68;3.40;;;41.90;28.00;40.60;101440;;;;573088;248;24155;-77
2023/05/12 09:07:25;;;;;;;14.93;5.00;;;41.80;27.90;40.30;101444;;;;569744;248;23093;-77
2023/05/12 09:09:52;;;;;;;5.47;3.35;;;41.80;27.70;39.10;101451;;;;572937;248;23148;-78
2023/05/12 09:12:21;;;;;;;12.13;4.45;;;41.00;28.00;37.90;101439;;;;569365;248;23177;-74
2023/05/12 09:14:49;;;;;;;9.73;4.12;;;39.80;28.60;37.60;101440;;;;569798;248;23210;-75
2023/05/12 09:17:21;;;;;;;8.35;3.78;;;39.20;29.00;37.30;101432;;;;568974;248;23160;-75
2023/05/12 09:19:45;;;;;;;13.88;3.75;;;38.70;29.10;36.80;101443;;;;569911;248;23136;-79
2023/05/12 09:22:14;;;;;;;7.62;3.72;;;38.30;29.30;35.90;101437;;;;569951;248;23105;-77
2023/05/12 09:24:41;;;;;;;13.25;5.22;;;37.30;29.50;35.80;101435;;;;570008;248;24097;-78
2023/05/12 09:27:09;;;;;;;6.68;3.12;;;37.20;29.90;35.70;101445;;;;569695;248;23101;-79
2023/05/12 09:29:37;;;;;;;9.13;3.97;;;37.20;29.50;35.50;101438;;;;569672;248;23121;-78
2023/05/12 09:32:05;;;;;;;9.90;4.30;;;37.10;29.20;35.50;101439;;;;568479;248;23144;-79
2023/05/12 09:34:37;;;;;;;10.98;3.20;;;37.00;29.10;35.80;101434;;;;569427;248;23145;-79
2023/05/12 09:37:04;;;;;;;10.07;4.43;;;37.30;28.90;36.00;101427;;;;569271;248;24194;-78
2023/05/12 09:39:31;;;;;;;8.98;3.58;;;37.40;29.30;37.00;101422;;;;569229;248;23116;-79
2023/05/12 09:41:59;;;;;;;11.57;4.15;;;38.20;28.80;37.00;101435;;;;569335;248;23090;-74
2023/05/12 09:44:30;;;;;;;9.25;3.65;;;38.30;28.30;36.50;101429;;;;569438;248;23113;-75
2023/05/12 09:47:09;;;;;;;9.40;3.28;;;37.90;28.80;36.10;101426;;;;578024;248;23098;-74
2023/05/12 09:49:37;;;;;;;13.75;3.17;;;37.80;28.70;35.90;101426;;;;578345;248;24239;-74
2023/05/12 09:52:04;;;;;;;14.45;3.67;;;37.60;29.00;36.40;101414;;;;569641;248;23118;-74
2023/05/12 09:54:34;;;;;;;6.10;3.15;;;37.90;29.00;37.30;101415;;;;569580;248;23154;-75
2023/05/12 09:57:03;;;;;;;6.35;3.00;;;38.70;28.90;38.30;101425;;;;569564;248;23136;-76
2023/05/12 09:59:33;;;;;;;10.43;3.58;;;39.70;28.40;38.50;101418;;;;578264;248;23187;-75
2023/05/12 10:01:58;;;;;;;9.73;4.12;;;40.10;27.80;38.20;101408;;;;578732;246;23121;-80
2023/05/12 10:04:29;;;;;;;27.73;4.95;;;40.10;27.60;37.10;101409;;;;578963;247;24142;-77
2023/05/12 10:06:57;;;;;;;12.60;3.70;;;38.80;28.40;36.70;101415;;;;570241;247;23113;-79
2023/05/12 10:09:26;;;;;;;5.95;2.85;;;38.50;28.50;36.50;101401;;;;573146;247;23124;-76
2023/05/12 10:11:55;;;;;;;11.68;4.07;;;38.50;28.50;37.30;101415;;;;569378;248;23105;-75
2023/05/12 10:14:22;;;;;;;7.18;3.42;;;38.80;28.20;36.60;101408;;;;569891;248;23098;-74
2023/05/12 10:16:50;;;;;;;13.27;5.10;;;38.30;28.10;36.10;101394;;;;569662;248;23112;-74
2023/05/12 10:19:21;;;;;;;9.10;4.15;;;37.10;28.40;35.20;101397;;;;570151;248;23155;-74
2023/05/12 10:21:46;;;;;;;5.87;3.53;;;37.00;28.80;34.10;101395;;;;578398;248;24188;-74
2023/05/12 10:24:17;;;;;;;6.90;3.10;;;36.10;29.50;33.20;101399;;;;570182;248;23140;-74
2023/05/12 10:26:48;;;;;;;15.15;3.47;;;35.30;29.80;32.60;101412;;;;578862;248;23143;-75
2023/05/12 10:29:12;;;;;;;5.22;3.47;;;34.40;30.20;32.20;101408;;;;573272;248;23097;-74
2023/05/12 10:31:40;;;;;;;8.02;3.87;;;33.90;30.80;31.40;101408;;;;570034;248;23122;-73
2023/05/12 10:34:08;;;;;;;9.05;3.40;;;33.30;30.20;29.30;101397;;;;569676;248;23165;-73
2023/05/12 10:36:48;;;;;;;7.05;3.30;;;30.30;33.00;28.20;101401;;;;569153;248;23146;-73
2023/05/12 10:39:14;;;;;;;8.68;3.90;;;27.90;33.90;26.60;101395;;;;563163;248;35330;-73
2023/05/12 10:41:42;;;;;;;7.65;3.33;;;27.20;36.50;25.70;101391;;;;572971;248;23190;-74
2023/05/12 10:44:10;;;;;;;9.50;4.13;;;25.60;37.80;24.60;101394;;;;569592;248;23112;-75
2023/05/12 10:46:37;;;;;;;7.83;3.23;;;24.70;39.40;23.70;101400;;;;569706;248;23129;-74
2023/05/12 10:49:08;;;;;;;10.73;3.93;;;24.10;40.50;23.00;101379;;;;569998;248;23109;-75
2023/05/12 10:51:37;;;;;;;9.60;3.83;;;23.20;41.40;22.50;101383;;;;569710;248;24150;-78
2023/05/12 10:54:09;;;;;;;9.23;4.33;;;22.70;41.80;22.00;101385;;;;569819;248;24081;-74
2023/05/12 10:56:39;;;;;;;8.77;3.40;;;22.40;43.00;21.50;101385;;;;569583;248;24088;-73
2023/05/12 10:59:19;;;;;;;7.80;3.40;;;20.90;43.60;21.10;101376;;;;569606;248;24122;-75
2023/05/12 11:02:04;;;;;;;7.43;3.23;;;21.40;43.00;20.80;101379;;;;569475;248;24194;-73
2023/05/12 11:04:42;;;;;;;7.90;3.27;;;20.90;45.10;20.40;101389;;;;577790;248;24092;-74
2023/05/12 11:07:11;;;;;;;7.72;3.78;;;20.60;44.60;20.10;101365;;;;564680;248;35363;-77
2023/05/12 11:09:38;;;;;;;4.03;2.53;;;20.50;44.30;20.00;101368;;;;569591;248;23113;-75
2023/05/12 11:12:06;;;;;;;8.13;3.37;;;20.50;45.70;19.90;101365;;;;569320;248;24153;-74
2023/05/12 11:14:38;;;;;;;12.05;3.45;;;20.30;43.60;19.80;101379;;;;564161;247;35382;-74